sensor_id;sensor_type;location;lat;lon;timestamp;temperature;humidity
2212;DHT22;48849;48.758;9.158;2022-08-18T00:01:39;23.30;99.90
2212;DHT22;48849;48.758;9.158;2022-08-18T00:04:07;23.30;99.90
2212;DHT22;48849;48.758;9.158;2022-08-18T00:06:34;23.30;99.90
2212;DHT22;48849;48.758;9.158;2022-08-18T00:09:04;23.30;99.90
2212;DHT22;48849;48.758;9.158;2022-08-18T00:11:33;23.30;99.90
2212;DHT22;48849;48.758;9.158;2022-08-18T00:14:00;23.30;99.90
2212;DHT22;48849;48.758;9.158;2022-08-18T00:16:27;23.30;99.90
2212;DHT22;48849;48.758;9.158;2022-08-18T00:18:55;23.40;99.90
2212;DHT22;48849;48.758;9.158;2022-08-18T00:21:22;23.30;99.90
2212;DHT22;48849;48.758;9.158;2022-08-18T00:23:49;23.30;99.90
2212;DHT22;48849;48.758;9.158;2022-08-18T00:26:15;23.30;99.90
2212;DHT22;48849;48.758;9.158;2022-08-18T00:28:42;23.20;99.90
2212;DHT22;48849;48.758;9.158;2022-08-18T00:31:09;23.30;99.90
2212;DHT22;48849;48.758;9.158;2022-08-18T00:33:35;23.30;99.90
2212;DHT22;48849;48.758;9.158;2022-08-18T00:36:04;23.20;99.90
2212;DHT22;48849;48.758;9.158;2022-08-18T00:38:30;23.20;99.90
2212;DHT22;48849;48.758;9.158;2022-08-18T00:40:57;23.20;99.90
2212;DHT22;48849;48.758;9.158;2022-08-18T00:43:31;23.30;99.90
2212;DHT22;48849;48.758;9.158;2022-08-18T00:45:59;23.30;99.90
2212;DHT22;48849;48.758;9.158;2022-08-18T00:48:26;23.30;99.90
2212;DHT22;48849;48.758;9.158;2022-08-18T00:50:55;23.30;99.90
2212;DHT22;48849;48.758;9.158;2022-08-18T00:53:28;23.30;99.90
2212;DHT22;48849;48.758;9.158;2022-08-18T00:55:59;23.30;99.90
2212;DHT22;48849;48.758;9.158;2022-08-18T00:58:28;23.20;99.90
2212;DHT22;48849;48.758;9.158;2022-08-18T01:00:56;23.20;99.90
2212;DHT22;48849;48.758;9.158;2022-08-18T01:03:26;23.20;99.90
2212;DHT22;48849;48.758;9.158;2022-08-18T01:05:56;23.20;99.90
2212;DHT22;48849;48.758;9.158;2022-08-18T01:08:26;23.20;99.90
2212;DHT22;48849;48.758;9.158;2022-08-18T01:10:54;23.60;99.90
2212;DHT22;48849;48.758;9.158;2022-08-18T01:13:24;23.20;99.90
2212;DHT22;48849;48.758;9.158;2022-08-18T01:15:52;23.20;99.90
2212;DHT22;48849;48.758;9.158;2022-08-18T01:18:19;23.20;99.90
2212;DHT22;48849;48.758;9.158;2022-08-18T01:21:12;23.20;99.90
2212;DHT22;48849;48.758;9.158;2022-08-18T01:24:01;23.10;99.90
2212;DHT22;48849;48.758;9.158;2022-08-18T01:26:29;23.10;99.90
2212;DHT22;48849;48.758;9.158;2022-08-18T01:29:04;23.10;99.90
2212;DHT22;48849;48.758;9.158;2022-08-18T01:31:38;23.10;99.90
2212;DHT22;48849;48.758;9.158;2022-08-18T01:34:05;23.10;99.90
2212;DHT22;48849;48.758;9.158;2022-08-18T01:36:33;23.10;99.90
2212;DHT22;48849;48.758;9.158;2022-08-18T01:39:04;23.10;99.90
2212;DHT22;48849;48.758;9.158;2022-08-18T01:41:32;23.10;99.90
2212;DHT22;48849;48.758;9.158;2022-08-18T01:44:00;23.10;99.90
2212;DHT22;48849;48.758;9.158;2022-08-18T01:46:29;23.10;99.90
2212;DHT22;48849;48.758;9.158;2022-08-18T01:48:57;23.00;99.90
2212;DHT22;48849;48.758;9.158;2022-08-18T01:51:26;23.00;99.90
2212;DHT22;48849;48.758;9.158;2022-08-18T01:53:54;23.00;99.90
2212;DHT22;48849;48.758;9.158;2022-08-18T01:56:22;22.90;99.90
2212;DHT22;48849;48.758;9.158;2022-08-18T01:58:51;23.00;99.90
2212;DHT22;48849;48.758;9.158;2022-08-18T02:01:18;22.90;99.90
2212;DHT22;48849;48.758;9.158;2022-08-18T02:03:49;23.00;99.90
2212;DHT22;48849;48.758;9.158;2022-08-18T02:06:17;23.00;99.90
2212;DHT22;48849;48.758;9.158;2022-08-18T02:08:45;23.00;99.90
2212;DHT22;48849;48.758;9.158;2022-08-18T02:11:13;23.00;99.90
2212;DHT22;48849;48.758;9.158;2022-08-18T02:13:41;23.00;99.90
2212;DHT22;48849;48.758;9.158;2022-08-18T02:16:08;23.00;99.90
2212;DHT22;48849;48.758;9.158;2022-08-18T02:18:36;23.00;99.90
2212;DHT22;48849;48.758;9.158;2022-08-18T02:21:07;23.00;99.90
2212;DHT22;48849;48.758;9.158;2022-08-18T02:23:34;23.00;99.90
2212;DHT22;48849;48.758;9.158;2022-08-18T02:26:03;23.00;99.90
2212;DHT22;48849;48.758;9.158;2022-08-18T02:28:30;22.90;99.90
2212;DHT22;48849;48.758;9.158;2022-08-18T02:31:03;22.80;99.90
2212;DHT22;48849;48.758;9.158;2022-08-18T02:33:30;22.80;99.90
2212;DHT22;48849;48.758;9.158;2022-08-18T02:35:56;22.80;99.90
2212;DHT22;48849;48.758;9.158;2022-08-18T02:38:23;22.80;99.90
2212;DHT22;48849;48.758;9.158;2022-08-18T02:40:54;22.70;99.90
2212;DHT22;48849;48.758;9.158;2022-08-18T02:43:21;22.80;99.90
2212;DHT22;48849;48.758;9.158;2022-08-18T02:45:48;22.80;99.90
2212;DHT22;48849;48.758;9.158;2022-08-18T02:48:16;22.80;99.90
2212;DHT22;48849;48.758;9.158;2022-08-18T02:50:43;22.80;99.90
2212;DHT22;48849;48.758;9.158;2022-08-18T02:53:12;22.80;99.90
2212;DHT22;48849;48.758;9.158;2022-08-18T02:55:43;22.80;99.90
2212;DHT22;48849;48.758;9.158;2022-08-18T02:58:09;22.80;99.90
2212;DHT22;48849;48.758;9.158;2022-08-18T03:00:37;22.70;99.90
2212;DHT22;48849;48.758;9.158;2022-08-18T03:03:05;22.80;99.90
2212;DHT22;48849;48.758;9.158;2022-08-18T03:05:33;22.80;99.90
2212;DHT22;48849;48.758;9.158;2022-08-18T03:08:00;22.80;99.90
2212;DHT22;48849;48.758;9.158;2022-08-18T03:10:26;22.90;99.90
2212;DHT22;48849;48.758;9.158;2022-08-18T03:12:53;22.90;99.90
2212;DHT22;48849;48.758;9.158;2022-08-18T03:15:20;22.90;99.90
2212;DHT22;48849;48.758;9.158;2022-08-18T03:17:47;22.90;99.90
2212;DHT22;48849;48.758;9.158;2022-08-18T03:20:13;22.90;99.90
2212;DHT22;48849;48.758;9.158;2022-08-18T03:22:41;22.90;99.90
2212;DHT22;48849;48.758;9.158;2022-08-18T03:25:08;22.80;99.90
2212;DHT22;48849;48.758;9.158;2022-08-18T03:27:35;22.80;99.90
2212;DHT22;48849;48.758;9.158;2022-08-18T03:30:02;22.80;99.90
2212;DHT22;48849;48.758;9.158;2022-08-18T03:32:29;22.80;99.90
2212;DHT22;48849;48.758;9.158;2022-08-18T03:34:56;22.70;99.90
2212;DHT22;48849;48.758;9.158;2022-08-18T03:37:23;22.60;99.90
2212;DHT22;48849;48.758;9.158;2022-08-18T03:39:51;22.70;99.90
2212;DHT22;48849;48.758;9.158;2022-08-18T03:42:18;22.70;99.90
2212;DHT22;48849;48.758;9.158;2022-08-18T03:44:45;22.70;99.90
2212;DHT22;48849;48.758;9.158;2022-08-18T03:47:12;22.70;99.90
2212;DHT22;48849;48.758;9.158;2022-08-18T03:49:38;22.70;99.90
2212;DHT22;48849;48.758;9.158;2022-08-18T03:52:07;22.70;99.90
2212;DHT22;48849;48.758;9.158;2022-08-18T03:54:34;22.70;99.90
2212;DHT22;48849;48.758;9.158;2022-08-18T03:57:07;22.80;99.90
2212;DHT22;48849;48.758;9.158;2022-08-18T03:59:34;22.80;99.90
2212;DHT22;48849;48.758;9.158;2022-08-18T04:02:03;22.80;99.90
2212;DHT22;48849;48.758;9.158;2022-08-18T04:04:30;22.80;99.90
2212;DHT22;48849;48.758;9.158;2022-08-18T04:06:59;22.80;99.90
2212;DHT22;48849;48.758;9.158;2022-08-18T04:09:29;22.80;99.90
2212;DHT22;48849;48.758;9.158;2022-08-18T04:12:01;22.80;99.90
2212;DHT22;48849;48.758;9.158;2022-08-18T04:14:30;22.80;99.90
2212;DHT22;48849;48.758;9.158;2022-08-18T04:16:57;22.80;99.90
2212;DHT22;48849;48.758;9.158;2022-08-18T04:19:24;22.80;99.90
2212;DHT22;48849;48.758;9.158;2022-08-18T04:21:51;22.70;99.90
2212;DHT22;48849;48.758;9.158;2022-08-18T04:24:18;22.70;99.90
2212;DHT22;48849;48.758;9.158;2022-08-18T04:26:46;22.70;99.90
2212;DHT22;48849;48.758;9.158;2022-08-18T04:29:15;22.70;99.90
2212;DHT22;48849;48.758;9.158;2022-08-18T04:31:44;22.70;99.90
2212;DHT22;48849;48.758;9.158;2022-08-18T04:34:11;22.70;99.90
2212;DHT22;48849;48.758;9.158;2022-08-18T04:36:38;22.70;99.90
2212;DHT22;48849;48.758;9.158;2022-08-18T04:39:07;22.60;99.90
2212;DHT22;48849;48.758;9.158;2022-08-18T04:41:35;22.70;99.90
2212;DHT22;48849;48.758;9.158;2022-08-18T04:44:05;22.70;99.90
2212;DHT22;48849;48.758;9.158;2022-08-18T04:46:34;22.70;99.90
2212;DHT22;48849;48.758;9.158;2022-08-18T04:49:03;22.70;99.90
2212;DHT22;48849;48.758;9.158;2022-08-18T04:51:30;22.70;99.90
2212;DHT22;48849;48.758;9.158;2022-08-18T04:53:58;22.70;99.90
2212;DHT22;48849;48.758;9.158;2022-08-18T04:56:28;22.70;99.90
2212;DHT22;48849;48.758;9.158;2022-08-18T04:58:57;22.70;99.90
2212;DHT22;48849;48.758;9.158;2022-08-18T05:01:26;22.70;99.90
2212;DHT22;48849;48.758;9.158;2022-08-18T05:03:56;22.70;99.90
2212;DHT22;48849;48.758;9.158;2022-08-18T05:06:26;22.70;99.90
2212;DHT22;48849;48.758;9.158;2022-08-18T05:08:55;22.70;99.90
2212;DHT22;48849;48.758;9.158;2022-08-18T05:11:23;22.70;99.90
2212;DHT22;48849;48.758;9.158;2022-08-18T05:13:51;22.70;99.90
2212;DHT22;48849;48.758;9.158;2022-08-18T05:16:19;22.70;99.90
2212;DHT22;48849;48.758;9.158;2022-08-18T05:18:45;22.70;99.90
2212;DHT22;48849;48.758;9.158;2022-08-18T05:21:13;22.70;99.90
2212;DHT22;48849;48.758;9.158;2022-08-18T05:23:42;22.70;99.90
2212;DHT22;48849;48.758;9.158;2022-08-18T05:26:10;22.70;99.90
2212;DHT22;48849;48.758;9.158;2022-08-18T05:28:37;22.70;99.90
2212;DHT22;48849;48.758;9.158;2022-08-18T05:31:06;22.70;99.90
2212;DHT22;48849;48.758;9.158;2022-08-18T05:33:33;22.80;99.90
2212;DHT22;48849;48.758;9.158;2022-08-18T05:36:05;22.80;99.90
2212;DHT22;48849;48.758;9.158;2022-08-18T05:38:40;23.00;99.90
2212;DHT22;48849;48.758;9.158;2022-08-18T05:41:17;22.80;99.90
2212;DHT22;48849;48.758;9.158;2022-08-18T05:43:45;22.80;99.90
2212;DHT22;48849;48.758;9.158;2022-08-18T05:46:13;22.70;99.90
2212;DHT22;48849;48.758;9.158;2022-08-18T05:48:40;22.80;99.90
2212;DHT22;48849;48.758;9.158;2022-08-18T05:51:14;22.80;99.90
2212;DHT22;48849;48.758;9.158;2022-08-18T05:53:42;22.80;99.90
2212;DHT22;48849;48.758;9.158;2022-08-18T05:56:32;22.80;99.90
2212;DHT22;48849;48.758;9.158;2022-08-18T05:59:23;22.80;99.90
2212;DHT22;48849;48.758;9.158;2022-08-18T06:01:56;22.80;99.90
2212;DHT22;48849;48.758;9.158;2022-08-18T06:04:37;22.80;99.90
2212;DHT22;48849;48.758;9.158;2022-08-18T06:07:08;22.80;99.90
2212;DHT22;48849;48.758;9.158;2022-08-18T06:09:40;22.90;99.90
2212;DHT22;48849;48.758;9.158;2022-08-18T06:12:18;22.80;99.90
2212;DHT22;48849;48.758;9.158;2022-08-18T06:14:47;22.90;99.90
2212;DHT22;48849;48.758;9.158;2022-08-18T06:17:34;22.90;99.90
2212;DHT22;48849;48.758;9.158;2022-08-18T06:20:07;22.90;99.90
2212;DHT22;48849;48.758;9.158;2022-08-18T06:22:43;22.90;99.90
2212;DHT22;48849;48.758;9.158;2022-08-18T06:25:17;22.90;99.90
2212;DHT22;48849;48.758;9.158;2022-08-18T06:27:53;22.90;99.90
2212;DHT22;48849;48.758;9.158;2022-08-18T06:30:27;22.90;99.90
2212;DHT22;48849;48.758;9.158;2022-08-18T06:33:09;22.90;99.90
2212;DHT22;48849;48.758;9.158;2022-08-18T06:35:41;22.90;99.90
2212;DHT22;48849;48.758;9.158;2022-08-18T06:38:23;22.90;99.90
2212;DHT22;48849;48.758;9.158;2022-08-18T06:41:12;22.90;99.90
2212;DHT22;48849;48.758;9.158;2022-08-18T06:43:49;23.00;99.90
2212;DHT22;48849;48.758;9.158;2022-08-18T06:46:22;23.00;99.90
2212;DHT22;48849;48.758;9.158;2022-08-18T06:48:57;23.00;99.90
2212;DHT22;48849;48.758;9.158;2022-08-18T06:51:27;22.90;99.90
2212;DHT22;48849;48.758;9.158;2022-08-18T06:53:57;22.90;99.90
2212;DHT22;48849;48.758;9.158;2022-08-18T06:56:27;22.90;99.90
2212;DHT22;48849;48.758;9.158;2022-08-18T06:59:18;22.90;99.90
2212;DHT22;48849;48.758;9.158;2022-08-18T07:01:49;22.90;99.90
2212;DHT22;48849;48.758;9.158;2022-08-18T07:04:36;22.90;99.90
2212;DHT22;48849;48.758;9.158;2022-08-18T07:07:29;22.90;99.90
2212;DHT22;48849;48.758;9.158;2022-08-18T07:09:57;23.00;99.90
2212;DHT22;48849;48.758;9.158;2022-08-18T07:12:25;23.00;99.90
2212;DHT22;48849;48.758;9.158;2022-08-18T07:14:56;23.00;99.90
2212;DHT22;48849;48.758;9.158;2022-08-18T07:17:26;23.00;99.90
2212;DHT22;48849;48.758;9.158;2022-08-18T07:19:55;23.10;99.90
2212;DHT22;48849;48.758;9.158;2022-08-18T07:22:22;23.10;99.90
2212;DHT22;48849;48.758;9.158;2022-08-18T07:24:51;23.30;99.90
2212;DHT22;48849;48.758;9.158;2022-08-18T07:27:20;23.10;99.90
2212;DHT22;48849;48.758;9.158;2022-08-18T07:30:03;23.10;99.90
2212;DHT22;48849;48.758;9.158;2022-08-18T07:32:34;23.10;99.90
2212;DHT22;48849;48.758;9.158;2022-08-18T07:35:04;23.20;99.90
2212;DHT22;48849;48.758;9.158;2022-08-18T07:37:35;23.20;99.90
2212;DHT22;48849;48.758;9.158;2022-08-18T07:40:13;23.10;99.90
2212;DHT22;48849;48.758;9.158;2022-08-18T07:42:47;23.10;99.90
2212;DHT22;48849;48.758;9.158;2022-08-18T07:45:21;23.10;99.90
2212;DHT22;48849;48.758;9.158;2022-08-18T07:47:51;23.20;99.90
2212;DHT22;48849;48.758;9.158;2022-08-18T07:50:20;23.20;99.90
2212;DHT22;48849;48.758;9.158;2022-08-18T07:52:55;23.20;99.90
2212;DHT22;48849;48.758;9.158;2022-08-18T07:55:30;23.20;99.90
2212;DHT22;48849;48.758;9.158;2022-08-18T07:58:03;23.20;99.90
2212;DHT22;48849;48.758;9.158;2022-08-18T08:00:42;23.30;99.90
2212;DHT22;48849;48.758;9.158;2022-08-18T08:03:25;23.20;99.90
2212;DHT22;48849;48.758;9.158;2022-08-18T08:05:59;23.20;99.90
2212;DHT22;48849;48.758;9.158;2022-08-18T08:08:29;23.30;99.90
2212;DHT22;48849;48.758;9.158;2022-08-18T08:11:10;23.40;99.90
2212;DHT22;48849;48.758;9.158;2022-08-18T08:13:51;23.30;99.90
2212;DHT22;48849;48.758;9.158;2022-08-18T08:16:35;23.30;99.90
2212;DHT22;48849;48.758;9.158;2022-08-18T08:19:10;23.40;99.90
2212;DHT22;48849;48.758;9.158;2022-08-18T08:21:46;23.30;99.90
2212;DHT22;48849;48.758;9.158;2022-08-18T08:24:17;23.40;99.90
2212;DHT22;48849;48.758;9.158;2022-08-18T08:26:52;23.40;99.90
2212;DHT22;48849;48.758;9.158;2022-08-18T08:29:28;23.40;99.90
2212;DHT22;48849;48.758;9.158;2022-08-18T08:32:03;23.40;99.90
2212;DHT22;48849;48.758;9.158;2022-08-18T08:34:36;23.40;99.90
2212;DHT22;48849;48.758;9.158;2022-08-18T08:37:08;23.50;99.90
2212;DHT22;48849;48.758;9.158;2022-08-18T08:39:38;23.50;99.90
2212;DHT22;48849;48.758;9.158;2022-08-18T08:42:14;23.60;99.90
2212;DHT22;48849;48.758;9.158;2022-08-18T08:44:45;23.60;99.90
2212;DHT22;48849;48.758;9.158;2022-08-18T08:47:19;23.60;99.90
2212;DHT22;48849;48.758;9.158;2022-08-18T08:49:51;23.60;99.90
2212;DHT22;48849;48.758;9.158;2022-08-18T08:52:23;23.70;99.90
2212;DHT22;48849;48.758;9.158;2022-08-18T08:54:55;23.70;99.90
2212;DHT22;48849;48.758;9.158;2022-08-18T08:57:27;23.70;99.90
2212;DHT22;48849;48.758;9.158;2022-08-18T08:59:57;23.80;99.90
2212;DHT22;48849;48.758;9.158;2022-08-18T09:02:49;23.80;99.90
2212;DHT22;48849;48.758;9.158;2022-08-18T09:05:20;23.80;99.90
2212;DHT22;48849;48.758;9.158;2022-08-18T09:08:12;23.90;99.90
2212;DHT22;48849;48.758;9.158;2022-08-18T09:11:14;23.90;99.90
2212;DHT22;48849;48.758;9.158;2022-08-18T09:16:51;23.90;99.90
2212;DHT22;48849;48.758;9.158;2022-08-18T09:19:36;23.90;99.90
2212;DHT22;48849;48.758;9.158;2022-08-18T09:22:15;23.90;99.90
2212;DHT22;48849;48.758;9.158;2022-08-18T09:24:46;24.00;99.90
2212;DHT22;48849;48.758;9.158;2022-08-18T09:27:25;24.00;99.90
2212;DHT22;48849;48.758;9.158;2022-08-18T09:29:58;24.10;99.90
2212;DHT22;48849;48.758;9.158;2022-08-18T09:32:47;24.10;99.90
2212;DHT22;48849;48.758;9.158;2022-08-18T09:38:09;24.20;99.90
2212;DHT22;48849;48.758;9.158;2022-08-18T09:40:58;24.20;99.90
2212;DHT22;48849;48.758;9.158;2022-08-18T09:43:55;24.20;99.90
2212;DHT22;48849;48.758;9.158;2022-08-18T09:46:52;24.20;99.90
2212;DHT22;48849;48.758;9.158;2022-08-18T09:49:49;24.30;99.90
2212;DHT22;48849;48.758;9.158;2022-08-18T09:55:50;24.30;99.90
2212;DHT22;48849;48.758;9.158;2022-08-18T10:01:26;24.40;99.90
2212;DHT22;48849;48.758;9.158;2022-08-18T10:04:26;24.40;99.90
2212;DHT22;48849;48.758;9.158;2022-08-18T10:06:53;24.40;99.90
2212;DHT22;48849;48.758;9.158;2022-08-18T10:09:41;24.50;99.90
2212;DHT22;48849;48.758;9.158;2022-08-18T10:12:49;24.50;99.90
2212;DHT22;48849;48.758;9.158;2022-08-18T10:15:29;24.60;99.90
2212;DHT22;48849;48.758;9.158;2022-08-18T10:20:53;24.70;99.90
2212;DHT22;48849;48.758;9.158;2022-08-18T10:23:47;24.70;99.90
2212;DHT22;48849;48.758;9.158;2022-08-18T10:29:53;24.70;99.90
2212;DHT22;48849;48.758;9.158;2022-08-18T10:32:36;24.80;99.90
2212;DHT22;48849;48.758;9.158;2022-08-18T10:35:04;24.80;99.90
2212;DHT22;48849;48.758;9.158;2022-08-18T10:37:36;24.80;99.90
2212;DHT22;48849;48.758;9.158;2022-08-18T10:40:15;24.80;99.90
2212;DHT22;48849;48.758;9.158;2022-08-18T10:42:47;24.80;99.90
2212;DHT22;48849;48.758;9.158;2022-08-18T10:45:23;24.90;99.90
2212;DHT22;48849;48.758;9.158;2022-08-18T10:47:58;24.90;99.90
2212;DHT22;48849;48.758;9.158;2022-08-18T10:50:28;25.00;99.90
2212;DHT22;48849;48.758;9.158;2022-08-18T10:53:05;25.00;99.90
2212;DHT22;48849;48.758;9.158;2022-08-18T10:55:46;25.00;99.90
2212;DHT22;48849;48.758;9.158;2022-08-18T10:58:43;25.10;99.90
2212;DHT22;48849;48.758;9.158;2022-08-18T11:01:24;25.10;99.90
2212;DHT22;48849;48.758;9.158;2022-08-18T11:04:03;25.10;99.90
2212;DHT22;48849;48.758;9.158;2022-08-18T11:06:37;25.20;99.90
2212;DHT22;48849;48.758;9.158;2022-08-18T11:09:06;25.20;99.90
2212;DHT22;48849;48.758;9.158;2022-08-18T11:11:35;25.60;99.90
2212;DHT22;48849;48.758;9.158;2022-08-18T11:14:21;25.30;99.90
2212;DHT22;48849;48.758;9.158;2022-08-18T11:16:59;25.40;99.90
2212;DHT22;48849;48.758;9.158;2022-08-18T11:19:27;25.40;99.90
2212;DHT22;48849;48.758;9.158;2022-08-18T11:22:01;25.40;99.90
2212;DHT22;48849;48.758;9.158;2022-08-18T11:24:29;25.40;99.90
2212;DHT22;48849;48.758;9.158;2022-08-18T11:27:01;25.50;99.90
2212;DHT22;48849;48.758;9.158;2022-08-18T11:29:31;25.50;99.90
2212;DHT22;48849;48.758;9.158;2022-08-18T11:32:04;25.40;99.90
2212;DHT22;48849;48.758;9.158;2022-08-18T11:34:36;25.40;99.90
2212;DHT22;48849;48.758;9.158;2022-08-18T11:37:07;25.40;99.90
2212;DHT22;48849;48.758;9.158;2022-08-18T11:39:42;25.50;99.90
2212;DHT22;48849;48.758;9.158;2022-08-18T11:42:14;25.50;99.90
2212;DHT22;48849;48.758;9.158;2022-08-18T11:44:41;25.50;99.90
2212;DHT22;48849;48.758;9.158;2022-08-18T11:47:13;25.50;99.90
2212;DHT22;48849;48.758;9.158;2022-08-18T11:49:56;25.50;99.90
2212;DHT22;48849;48.758;9.158;2022-08-18T11:52:26;25.60;99.90
2212;DHT22;48849;48.758;9.158;2022-08-18T11:54:59;25.60;99.90
2212;DHT22;48849;48.758;9.158;2022-08-18T11:57:40;25.60;99.90
2212;DHT22;48849;48.758;9.158;2022-08-18T12:03:22;25.60;99.90
2212;DHT22;48849;48.758;9.158;2022-08-18T12:05:55;25.60;99.90
2212;DHT22;48849;48.758;9.158;2022-08-18T12:08:27;25.60;99.90
2212;DHT22;48849;48.758;9.158;2022-08-18T12:11:03;26.30;99.90
2212;DHT22;48849;48.758;9.158;2022-08-18T12:13:30;25.80;99.90
2212;DHT22;48849;48.758;9.158;2022-08-18T12:16:15;25.90;99.90
2212;DHT22;48849;48.758;9.158;2022-08-18T12:18:45;25.90;99.90
2212;DHT22;48849;48.758;9.158;2022-08-18T12:21:11;25.90;99.90
2212;DHT22;48849;48.758;9.158;2022-08-18T12:23:40;26.00;99.90
2212;DHT22;48849;48.758;9.158;2022-08-18T12:26:07;26.00;99.90
2212;DHT22;48849;48.758;9.158;2022-08-18T12:28:34;26.00;99.90
2212;DHT22;48849;48.758;9.158;2022-08-18T12:31:01;26.20;99.90
2212;DHT22;48849;48.758;9.158;2022-08-18T12:33:28;26.30;99.90
2212;DHT22;48849;48.758;9.158;2022-08-18T12:35:56;26.30;99.90
2212;DHT22;48849;48.758;9.158;2022-08-18T12:38:24;26.50;99.90
2212;DHT22;48849;48.758;9.158;2022-08-18T12:40:50;26.50;99.90
2212;DHT22;48849;48.758;9.158;2022-08-18T12:43:17;26.70;99.90
2212;DHT22;48849;48.758;9.158;2022-08-18T12:45:44;26.70;99.90
2212;DHT22;48849;48.758;9.158;2022-08-18T12:48:11;26.70;99.90
2212;DHT22;48849;48.758;9.158;2022-08-18T12:50:39;26.90;99.90
2212;DHT22;48849;48.758;9.158;2022-08-18T12:53:07;27.00;99.90
2212;DHT22;48849;48.758;9.158;2022-08-18T12:55:37;27.10;99.90
2212;DHT22;48849;48.758;9.158;2022-08-18T12:58:05;27.40;99.90
2212;DHT22;48849;48.758;9.158;2022-08-18T13:00:33;27.60;99.90
2212;DHT22;48849;48.758;9.158;2022-08-18T13:02:59;27.80;99.90
2212;DHT22;48849;48.758;9.158;2022-08-18T13:05:27;27.80;99.90
2212;DHT22;48849;48.758;9.158;2022-08-18T13:07:55;27.80;99.90
2212;DHT22;48849;48.758;9.158;2022-08-18T13:10:24;27.80;99.90
2212;DHT22;48849;48.758;9.158;2022-08-18T13:12:50;27.80;99.90
2212;DHT22;48849;48.758;9.158;2022-08-18T13:15:17;27.80;99.90
2212;DHT22;48849;48.758;9.158;2022-08-18T13:17:44;27.80;99.90
2212;DHT22;48849;48.758;9.158;2022-08-18T13:20:12;28.00;99.90
2212;DHT22;48849;48.758;9.158;2022-08-18T13:22:40;28.00;99.90
2212;DHT22;48849;48.758;9.158;2022-08-18T13:25:09;28.00;99.90
2212;DHT22;48849;48.758;9.158;2022-08-18T13:27:38;28.00;99.90
2212;DHT22;48849;48.758;9.158;2022-08-18T13:30:07;27.90;99.90
2212;DHT22;48849;48.758;9.158;2022-08-18T13:32:34;27.80;99.90
2212;DHT22;48849;48.758;9.158;2022-08-18T13:35:01;27.70;99.90
2212;DHT22;48849;48.758;9.158;2022-08-18T13:37:28;27.70;99.90
2212;DHT22;48849;48.758;9.158;2022-08-18T13:39:55;27.70;99.90
2212;DHT22;48849;48.758;9.158;2022-08-18T13:42:22;27.90;99.90
2212;DHT22;48849;48.758;9.158;2022-08-18T13:44:50;28.60;99.90
2212;DHT22;48849;48.758;9.158;2022-08-18T13:47:17;29.30;99.90
2212;DHT22;48849;48.758;9.158;2022-08-18T13:49:43;29.30;99.90
2212;DHT22;48849;48.758;9.158;2022-08-18T13:52:11;29.60;99.90
2212;DHT22;48849;48.758;9.158;2022-08-18T13:54:39;30.60;99.90
2212;DHT22;48849;48.758;9.158;2022-08-18T13:57:06;31.40;99.90
2212;DHT22;48849;48.758;9.158;2022-08-18T13:59:33;32.50;99.90
2212;DHT22;48849;48.758;9.158;2022-08-18T14:02:05;32.90;99.90
2212;DHT22;48849;48.758;9.158;2022-08-18T14:04:33;32.50;99.90
2212;DHT22;48849;48.758;9.158;2022-08-18T14:07:00;31.80;99.90
2212;DHT22;48849;48.758;9.158;2022-08-18T14:09:28;31.10;99.90
2212;DHT22;48849;48.758;9.158;2022-08-18T14:11:56;30.50;99.90
2212;DHT22;48849;48.758;9.158;2022-08-18T14:14:23;29.90;99.90
2212;DHT22;48849;48.758;9.158;2022-08-18T14:16:49;29.50;99.90
2212;DHT22;48849;48.758;9.158;2022-08-18T14:19:17;29.10;99.90
2212;DHT22;48849;48.758;9.158;2022-08-18T14:22:02;29.00;99.90
2212;DHT22;48849;48.758;9.158;2022-08-18T14:24:47;28.40;99.90
2212;DHT22;48849;48.758;9.158;2022-08-18T14:27:33;28.20;99.90
2212;DHT22;48849;48.758;9.158;2022-08-18T14:30:00;27.90;99.90
2212;DHT22;48849;48.758;9.158;2022-08-18T14:32:27;27.70;99.90
2212;DHT22;48849;48.758;9.158;2022-08-18T14:34:56;27.60;99.90
2212;DHT22;48849;48.758;9.158;2022-08-18T14:37:23;27.50;99.90
2212;DHT22;48849;48.758;9.158;2022-08-18T14:39:50;27.40;99.90
2212;DHT22;48849;48.758;9.158;2022-08-18T14:42:17;27.30;99.90
2212;DHT22;48849;48.758;9.158;2022-08-18T14:44:46;27.20;99.90
2212;DHT22;48849;48.758;9.158;2022-08-18T14:47:13;27.10;99.90
2212;DHT22;48849;48.758;9.158;2022-08-18T14:49:40;27.00;99.90
2212;DHT22;48849;48.758;9.158;2022-08-18T14:52:09;27.00;99.90
2212;DHT22;48849;48.758;9.158;2022-08-18T14:54:37;26.90;99.90
2212;DHT22;48849;48.758;9.158;2022-08-18T14:57:05;26.90;99.90
2212;DHT22;48849;48.758;9.158;2022-08-18T14:59:35;26.80;99.90
2212;DHT22;48849;48.758;9.158;2022-08-18T15:02:02;26.80;99.90
2212;DHT22;48849;48.758;9.158;2022-08-18T15:04:29;26.70;99.90
2212;DHT22;48849;48.758;9.158;2022-08-18T15:06:56;26.80;99.90
2212;DHT22;48849;48.758;9.158;2022-08-18T15:09:25;26.70;99.90
2212;DHT22;48849;48.758;9.158;2022-08-18T15:11:52;26.70;99.90
2212;DHT22;48849;48.758;9.158;2022-08-18T15:14:20;26.70;99.90
2212;DHT22;48849;48.758;9.158;2022-08-18T15:16:48;26.70;99.90
2212;DHT22;48849;48.758;9.158;2022-08-18T15:19:15;26.60;99.90
2212;DHT22;48849;48.758;9.158;2022-08-18T15:21:41;26.60;99.90
2212;DHT22;48849;48.758;9.158;2022-08-18T15:24:27;26.60;99.90
2212;DHT22;48849;48.758;9.158;2022-08-18T15:27:11;26.60;99.90
2212;DHT22;48849;48.758;9.158;2022-08-18T15:29:37;26.50;99.90
2212;DHT22;48849;48.758;9.158;2022-08-18T15:32:04;26.50;99.90
2212;DHT22;48849;48.758;9.158;2022-08-18T15:34:33;26.50;99.90
2212;DHT22;48849;48.758;9.158;2022-08-18T15:37:00;26.50;99.90
2212;DHT22;48849;48.758;9.158;2022-08-18T15:39:28;26.50;99.90
2212;DHT22;48849;48.758;9.158;2022-08-18T15:41:54;26.40;99.90
2212;DHT22;48849;48.758;9.158;2022-08-18T15:44:22;26.40;99.90
2212;DHT22;48849;48.758;9.158;2022-08-18T15:46:49;26.40;99.90
2212;DHT22;48849;48.758;9.158;2022-08-18T15:49:17;26.40;99.90
2212;DHT22;48849;48.758;9.158;2022-08-18T15:51:44;26.40;99.90
2212;DHT22;48849;48.758;9.158;2022-08-18T15:54:10;26.40;99.90
2212;DHT22;48849;48.758;9.158;2022-08-18T15:56:39;26.30;99.90
2212;DHT22;48849;48.758;9.158;2022-08-18T15:59:06;26.30;99.90
2212;DHT22;48849;48.758;9.158;2022-08-18T16:01:34;26.30;99.90
2212;DHT22;48849;48.758;9.158;2022-08-18T16:04:02;26.20;99.90
2212;DHT22;48849;48.758;9.158;2022-08-18T16:06:30;26.20;99.90
2212;DHT22;48849;48.758;9.158;2022-08-18T16:08:57;26.30;99.90
2212;DHT22;48849;48.758;9.158;2022-08-18T16:11:23;26.20;99.90
2212;DHT22;48849;48.758;9.158;2022-08-18T16:13:52;26.20;99.90
2212;DHT22;48849;48.758;9.158;2022-08-18T16:16:20;26.20;99.90
2212;DHT22;48849;48.758;9.158;2022-08-18T16:18:50;26.20;99.90
2212;DHT22;48849;48.758;9.158;2022-08-18T16:21:19;26.20;99.90
2212;DHT22;48849;48.758;9.158;2022-08-18T16:23:48;26.20;99.90
2212;DHT22;48849;48.758;9.158;2022-08-18T16:26:17;26.20;99.90
2212;DHT22;48849;48.758;9.158;2022-08-18T16:28:46;26.20;99.90
2212;DHT22;48849;48.758;9.158;2022-08-18T16:31:17;26.10;99.90
2212;DHT22;48849;48.758;9.158;2022-08-18T16:33:49;26.10;99.90